sensor_id;sensor_type;location;lat;lon;timestamp;P1;durP1;ratioP1;P2;durP2;ratioP2
4812;SDS011;2420;51.202;8.698;2022-11-20T00:01:18;16.33;;;7.93;;
4812;SDS011;2420;51.202;8.698;2022-11-20T00:03:45;17.80;;;8.53;;
4812;SDS011;2420;51.202;8.698;2022-11-20T00:06:12;18.17;;;9.03;;
4812;SDS011;2420;51.202;8.698;2022-11-20T00:08:40;21.83;;;9.50;;
4812;SDS011;2420;51.202;8.698;2022-11-20T00:11:10;16.30;;;7.67;;
4812;SDS011;2420;51.202;8.698;2022-11-20T00:13:38;13.80;;;7.47;;
4812;SDS011;2420;51.202;8.698;2022-11-20T00:16:04;14.37;;;7.30;;
4812;SDS011;2420;51.202;8.698;2022-11-20T00:18:32;11.40;;;6.20;;
4812;SDS011;2420;51.202;8.698;2022-11-20T00:21:05;14.20;;;6.23;;
4812;SDS011;2420;51.202;8.698;2022-11-20T00:23:32;12.03;;;6.63;;
4812;SDS011;2420;51.202;8.698;2022-11-20T00:26:06;11.00;;;5.90;;
4812;SDS011;2420;51.202;8.698;2022-11-20T00:28:33;13.80;;;5.93;;
4812;SDS011;2420;51.202;8.698;2022-11-20T00:33:28;10.17;;;5.23;;
4812;SDS011;2420;51.202;8.698;2022-11-20T00:35:58;14.20;;;6.37;;
4812;SDS011;2420;51.202;8.698;2022-11-20T00:38:25;14.10;;;6.63;;
4812;SDS011;2420;51.202;8.698;2022-11-20T00:40:57;13.93;;;6.13;;
4812;SDS011;2420;51.202;8.698;2022-11-20T00:43:24;14.63;;;7.23;;
4812;SDS011;2420;51.202;8.698;2022-11-20T00:45:50;13.03;;;5.30;;
4812;SDS011;2420;51.202;8.698;2022-11-20T00:48:16;11.40;;;5.40;;
4812;SDS011;2420;51.202;8.698;2022-11-20T00:50:41;7.93;;;4.10;;
4812;SDS011;2420;51.202;8.698;2022-11-20T00:53:07;6.43;;;4.00;;
4812;SDS011;2420;51.202;8.698;2022-11-20T00:55:32;12.33;;;4.67;;
4812;SDS011;2420;51.202;8.698;2022-11-20T00:57:58;10.50;;;4.47;;
4812;SDS011;2420;51.202;8.698;2022-11-20T01:00:23;8.53;;;4.60;;
4812;SDS011;2420;51.202;8.698;2022-11-20T01:02:49;10.13;;;5.20;;
4812;SDS011;2420;51.202;8.698;2022-11-20T01:05:14;9.93;;;5.07;;
4812;SDS011;2420;51.202;8.698;2022-11-20T01:07:40;10.13;;;5.60;;
4812;SDS011;2420;51.202;8.698;2022-11-20T01:10:06;12.60;;;4.05;;
4812;SDS011;2420;51.202;8.698;2022-11-20T01:12:31;9.50;;;4.13;;
4812;SDS011;2420;51.202;8.698;2022-11-20T01:14:57;7.40;;;4.00;;
4812;SDS011;2420;51.202;8.698;2022-11-20T01:17:22;4.70;;;3.37;;
4812;SDS011;2420;51.202;8.698;2022-11-20T01:19:49;8.87;;;4.30;;
4812;SDS011;2420;51.202;8.698;2022-11-20T01:22:15;8.00;;;3.80;;
4812;SDS011;2420;51.202;8.698;2022-11-20T01:24:41;6.13;;;3.13;;
4812;SDS011;2420;51.202;8.698;2022-11-20T01:27:06;5.13;;;3.23;;
4812;SDS011;2420;51.202;8.698;2022-11-20T01:29:32;6.57;;;3.50;;
4812;SDS011;2420;51.202;8.698;2022-11-20T01:31:57;9.93;;;4.13;;
4812;SDS011;2420;51.202;8.698;2022-11-20T01:34:23;7.07;;;4.50;;
4812;SDS011;2420;51.202;8.698;2022-11-20T01:36:48;7.33;;;4.53;;
4812;SDS011;2420;51.202;8.698;2022-11-20T01:39:18;5.77;;;3.70;;
4812;SDS011;2420;51.202;8.698;2022-11-20T01:41:47;7.10;;;4.17;;
4812;SDS011;2420;51.202;8.698;2022-11-20T01:44:43;8.70;;;4.67;;
4812;SDS011;2420;51.202;8.698;2022-11-20T01:47:40;10.57;;;5.30;;
4812;SDS011;2420;51.202;8.698;2022-11-20T01:52:39;8.20;;;4.47;;
4812;SDS011;2420;51.202;8.698;2022-11-20T01:55:15;9.73;;;4.47;;
4812;SDS011;2420;51.202;8.698;2022-11-20T01:57:44;9.47;;;4.90;;
4812;SDS011;2420;51.202;8.698;2022-11-20T02:00:13;10.37;;;5.00;;
4812;SDS011;2420;51.202;8.698;2022-11-20T02:02:42;10.70;;;5.17;;
4812;SDS011;2420;51.202;8.698;2022-11-20T02:07:47;14.43;;;4.47;;
4812;SDS011;2420;51.202;8.698;2022-11-20T02:10:13;8.63;;;3.90;;
4812;SDS011;2420;51.202;8.698;2022-11-20T02:12:39;9.13;;;4.93;;
4812;SDS011;2420;51.202;8.698;2022-11-20T02:15:24;10.83;;;4.93;;
4812;SDS011;2420;51.202;8.698;2022-11-20T02:17:49;9.87;;;5.40;;
4812;SDS011;2420;51.202;8.698;2022-11-20T02:20:15;9.80;;;4.67;;
4812;SDS011;2420;51.202;8.698;2022-11-20T02:25:33;9.40;;;4.70;;
4812;SDS011;2420;51.202;8.698;2022-11-20T02:28:01;9.80;;;4.60;;
4812;SDS011;2420;51.202;8.698;2022-11-20T02:30:27;8.93;;;4.27;;
4812;SDS011;2420;51.202;8.698;2022-11-20T02:32:53;8.83;;;4.83;;
4812;SDS011;2420;51.202;8.698;2022-11-20T02:37:44;6.17;;;3.50;;
4812;SDS011;2420;51.202;8.698;2022-11-20T02:40:13;5.67;;;3.20;;
4812;SDS011;2420;51.202;8.698;2022-11-20T02:42:38;6.60;;;3.37;;
4812;SDS011;2420;51.202;8.698;2022-11-20T02:45:04;5.53;;;2.93;;
4812;SDS011;2420;51.202;8.698;2022-11-20T02:47:30;5.70;;;3.20;;
4812;SDS011;2420;51.202;8.698;2022-11-20T02:49:56;5.87;;;2.80;;
4812;SDS011;2420;51.202;8.698;2022-11-20T02:52:22;5.20;;;2.57;;
4812;SDS011;2420;51.202;8.698;2022-11-20T02:54:48;4.57;;;2.50;;
4812;SDS011;2420;51.202;8.698;2022-11-20T02:57:13;4.83;;;2.53;;
4812;SDS011;2420;51.202;8.698;2022-11-20T02:59:39;5.37;;;3.00;;
4812;SDS011;2420;51.202;8.698;2022-11-20T03:02:04;7.63;;;3.77;;
4812;SDS011;2420;51.202;8.698;2022-11-20T03:04:30;7.17;;;3.70;;
4812;SDS011;2420;51.202;8.698;2022-11-20T03:06:56;7.43;;;4.13;;
4812;SDS011;2420;51.202;8.698;2022-11-20T03:09:21;9.47;;;4.37;;
4812;SDS011;2420;51.202;8.698;2022-11-20T03:11:47;8.93;;;4.27;;
4812;SDS011;2420;51.202;8.698;2022-11-20T03:14:12;7.97;;;4.03;;
4812;SDS011;2420;51.202;8.698;2022-11-20T03:16:39;6.13;;;3.50;;
4812;SDS011;2420;51.202;8.698;2022-11-20T03:19:04;5.53;;;3.30;;
4812;SDS011;2420;51.202;8.698;2022-11-20T03:21:30;12.43;;;4.20;;
4812;SDS011;2420;51.202;8.698;2022-11-20T03:23:57;6.40;;;3.60;;
4812;SDS011;2420;51.202;8.698;2022-11-20T03:26:24;5.73;;;3.17;;
4812;SDS011;2420;51.202;8.698;2022-11-20T03:28:51;7.10;;;3.30;;
4812;SDS011;2420;51.202;8.698;2022-11-20T03:31:20;10.43;;;4.97;;
4812;SDS011;2420;51.202;8.698;2022-11-20T03:33:47;6.53;;;3.83;;
4812;SDS011;2420;51.202;8.698;2022-11-20T03:36:14;7.50;;;3.73;;
4812;SDS011;2420;51.202;8.698;2022-11-20T03:38:41;7.17;;;4.50;;
4812;SDS011;2420;51.202;8.698;2022-11-20T03:41:07;6.03;;;3.40;;
4812;SDS011;2420;51.202;8.698;2022-11-20T03:43:35;4.70;;;2.70;;
4812;SDS011;2420;51.202;8.698;2022-11-20T03:46:01;6.80;;;3.37;;
4812;SDS011;2420;51.202;8.698;2022-11-20T03:48:27;7.80;;;3.73;;
4812;SDS011;2420;51.202;8.698;2022-11-20T03:50:53;5.83;;;3.10;;
4812;SDS011;2420;51.202;8.698;2022-11-20T03:53:34;4.07;;;2.70;;
4812;SDS011;2420;51.202;8.698;2022-11-20T03:55:59;3.97;;;2.40;;
4812;SDS011;2420;51.202;8.698;2022-11-20T03:58:25;4.77;;;2.77;;
4812;SDS011;2420;51.202;8.698;2022-11-20T04:00:51;4.10;;;2.20;;
4812;SDS011;2420;51.202;8.698;2022-11-20T04:03:16;3.93;;;2.40;;
4812;SDS011;2420;51.202;8.698;2022-11-20T04:05:42;3.23;;;2.10;;
4812;SDS011;2420;51.202;8.698;2022-11-20T04:08:07;5.37;;;3.03;;
4812;SDS011;2420;51.202;8.698;2022-11-20T04:10:33;5.10;;;3.07;;
4812;SDS011;2420;51.202;8.698;2022-11-20T04:12:58;6.37;;;3.53;;
4812;SDS011;2420;51.202;8.698;2022-11-20T04:15:24;7.87;;;3.80;;
4812;SDS011;2420;51.202;8.698;2022-11-20T04:17:49;8.47;;;4.07;;
4812;SDS011;2420;51.202;8.698;2022-11-20T04:20:15;7.37;;;4.00;;
4812;SDS011;2420;51.202;8.698;2022-11-20T04:22:40;6.97;;;4.17;;
4812;SDS011;2420;51.202;8.698;2022-11-20T04:25:06;7.27;;;3.77;;
4812;SDS011;2420;51.202;8.698;2022-11-20T04:27:32;8.20;;;4.10;;
4812;SDS011;2420;51.202;8.698;2022-11-20T04:29:58;7.63;;;3.80;;
4812;SDS011;2420;51.202;8.698;2022-11-20T04:32:23;6.57;;;3.43;;
4812;SDS011;2420;51.202;8.698;2022-11-20T04:34:49;7.50;;;3.73;;
4812;SDS011;2420;51.202;8.698;2022-11-20T04:37:14;7.07;;;3.60;;
4812;SDS011;2420;51.202;8.698;2022-11-20T04:39:40;5.70;;;3.27;;
4812;SDS011;2420;51.202;8.698;2022-11-20T04:42:05;6.33;;;3.03;;
4812;SDS011;2420;51.202;8.698;2022-11-20T04:44:49;8.53;;;3.10;;
4812;SDS011;2420;51.202;8.698;2022-11-20T04:47:15;5.00;;;2.90;;
4812;SDS011;2420;51.202;8.698;2022-11-20T04:49:40;6.07;;;3.10;;
4812;SDS011;2420;51.202;8.698;2022-11-20T04:52:06;5.73;;;3.00;;
4812;SDS011;2420;51.202;8.698;2022-11-20T04:54:31;5.10;;;2.80;;
4812;SDS011;2420;51.202;8.698;2022-11-20T04:56:57;4.70;;;2.85;;
4812;SDS011;2420;51.202;8.698;2022-11-20T04:59:22;5.93;;;2.80;;
4812;SDS011;2420;51.202;8.698;2022-11-20T05:01:48;4.23;;;2.80;;
4812;SDS011;2420;51.202;8.698;2022-11-20T05:04:13;4.97;;;2.63;;
4812;SDS011;2420;51.202;8.698;2022-11-20T05:06:39;6.53;;;3.10;;
4812;SDS011;2420;51.202;8.698;2022-11-20T05:09:04;5.57;;;3.27;;
4812;SDS011;2420;51.202;8.698;2022-11-20T05:11:31;7.17;;;3.40;;
4812;SDS011;2420;51.202;8.698;2022-11-20T05:13:58;8.87;;;4.20;;
4812;SDS011;2420;51.202;8.698;2022-11-20T05:16:24;7.53;;;3.97;;
4812;SDS011;2420;51.202;8.698;2022-11-20T05:18:50;7.80;;;3.80;;
4812;SDS011;2420;51.202;8.698;2022-11-20T05:21:17;7.17;;;3.87;;
4812;SDS011;2420;51.202;8.698;2022-11-20T05:23:43;7.27;;;4.10;;
4812;SDS011;2420;51.202;8.698;2022-11-20T05:26:20;8.57;;;4.60;;
4812;SDS011;2420;51.202;8.698;2022-11-20T05:28:46;9.87;;;4.20;;
4812;SDS011;2420;51.202;8.698;2022-11-20T05:31:14;7.13;;;4.13;;
4812;SDS011;2420;51.202;8.698;2022-11-20T05:33:41;6.70;;;3.63;;
4812;SDS011;2420;51.202;8.698;2022-11-20T05:36:08;7.60;;;4.17;;
4812;SDS011;2420;51.202;8.698;2022-11-20T05:38:36;6.60;;;3.80;;
4812;SDS011;2420;51.202;8.698;2022-11-20T05:41:05;9.43;;;3.60;;
4812;SDS011;2420;51.202;8.698;2022-11-20T05:43:39;6.57;;;3.67;;
4812;SDS011;2420;51.202;8.698;2022-11-20T05:46:06;5.10;;;2.87;;
4812;SDS011;2420;51.202;8.698;2022-11-20T05:48:33;5.10;;;2.83;;
4812;SDS011;2420;51.202;8.698;2022-11-20T05:51:00;4.70;;;2.57;;
4812;SDS011;2420;51.202;8.698;2022-11-20T05:53:27;4.77;;;2.67;;
4812;SDS011;2420;51.202;8.698;2022-11-20T05:55:56;4.33;;;2.50;;
4812;SDS011;2420;51.202;8.698;2022-11-20T05:58:33;4.97;;;2.70;;
4812;SDS011;2420;51.202;8.698;2022-11-20T06:01:13;12.00;;;6.23;;
4812;SDS011;2420;51.202;8.698;2022-11-20T06:03:41;13.07;;;6.50;;
4812;SDS011;2420;51.202;8.698;2022-11-20T06:06:08;12.83;;;5.83;;
4812;SDS011;2420;51.202;8.698;2022-11-20T06:08:34;4.13;;;2.73;;
4812;SDS011;2420;51.202;8.698;2022-11-20T06:11:07;4.63;;;3.10;;
4812;SDS011;2420;51.202;8.698;2022-11-20T06:13:34;7.07;;;4.00;;
4812;SDS011;2420;51.202;8.698;2022-11-20T06:15:59;9.80;;;5.03;;
4812;SDS011;2420;51.202;8.698;2022-11-20T06:18:26;10.60;;;4.53;;
4812;SDS011;2420;51.202;8.698;2022-11-20T06:21:00;10.90;;;4.00;;
4812;SDS011;2420;51.202;8.698;2022-11-20T06:23:44;7.73;;;3.77;;
4812;SDS011;2420;51.202;8.698;2022-11-20T06:26:11;9.13;;;4.20;;
4812;SDS011;2420;51.202;8.698;2022-11-20T06:28:41;7.10;;;4.00;;
4812;SDS011;2420;51.202;8.698;2022-11-20T06:31:07;6.80;;;3.80;;
4812;SDS011;2420;51.202;8.698;2022-11-20T06:33:35;8.27;;;4.13;;
4812;SDS011;2420;51.202;8.698;2022-11-20T06:36:01;9.60;;;4.20;;
4812;SDS011;2420;51.202;8.698;2022-11-20T06:38:27;7.83;;;3.90;;
4812;SDS011;2420;51.202;8.698;2022-11-20T06:40:53;9.17;;;4.73;;
4812;SDS011;2420;51.202;8.698;2022-11-20T06:43:19;7.17;;;4.00;;
4812;SDS011;2420;51.202;8.698;2022-11-20T06:45:45;8.50;;;4.10;;
4812;SDS011;2420;51.202;8.698;2022-11-20T06:48:10;6.97;;;3.53;;
4812;SDS011;2420;51.202;8.698;2022-11-20T06:50:36;7.10;;;3.57;;
4812;SDS011;2420;51.202;8.698;2022-11-20T06:53:02;6.33;;;3.47;;
4812;SDS011;2420;51.202;8.698;2022-11-20T06:55:29;5.87;;;3.70;;
4812;SDS011;2420;51.202;8.698;2022-11-20T06:57:56;6.47;;;3.90;;
4812;SDS011;2420;51.202;8.698;2022-11-20T07:00:21;7.60;;;3.90;;
4812;SDS011;2420;51.202;8.698;2022-11-20T07:02:47;4.47;;;3.23;;
4812;SDS011;2420;51.202;8.698;2022-11-20T07:05:12;11.47;;;5.00;;
4812;SDS011;2420;51.202;8.698;2022-11-20T07:07:38;19.70;;;8.90;;
4812;SDS011;2420;51.202;8.698;2022-11-20T07:10:04;14.63;;;7.05;;
4812;SDS011;2420;51.202;8.698;2022-11-20T07:12:30;6.73;;;4.40;;
4812;SDS011;2420;51.202;8.698;2022-11-20T07:14:55;5.93;;;3.70;;
4812;SDS011;2420;51.202;8.698;2022-11-20T07:17:21;7.27;;;3.80;;
4812;SDS011;2420;51.202;8.698;2022-11-20T07:19:47;11.23;;;6.83;;
4812;SDS011;2420;51.202;8.698;2022-11-20T07:22:12;14.68;;;7.78;;
4812;SDS011;2420;51.202;8.698;2022-11-20T07:24:38;8.25;;;4.85;;
4812;SDS011;2420;51.202;8.698;2022-11-20T07:27:04;6.43;;;3.55;;
4812;SDS011;2420;51.202;8.698;2022-11-20T07:29:30;6.43;;;3.60;;
4812;SDS011;2420;51.202;8.698;2022-11-20T07:31:55;6.15;;;3.33;;
4812;SDS011;2420;51.202;8.698;2022-11-20T07:34:21;5.68;;;3.22;;
4812;SDS011;2420;51.202;8.698;2022-11-20T07:36:47;6.28;;;3.25;;
4812;SDS011;2420;51.202;8.698;2022-11-20T07:39:12;8.35;;;4.80;;
4812;SDS011;2420;51.202;8.698;2022-11-20T07:41:38;9.98;;;5.35;;
4812;SDS011;2420;51.202;8.698;2022-11-20T07:44:04;7.83;;;4.63;;
4812;SDS011;2420;51.202;8.698;2022-11-20T07:46:29;18.77;;;9.52;;
4812;SDS011;2420;51.202;8.698;2022-11-20T07:48:55;11.73;;;7.00;;
4812;SDS011;2420;51.202;8.698;2022-11-20T07:51:20;12.32;;;6.25;;
4812;SDS011;2420;51.202;8.698;2022-11-20T07:53:46;13.05;;;7.30;;
4812;SDS011;2420;51.202;8.698;2022-11-20T07:56:11;16.05;;;9.32;;
4812;SDS011;2420;51.202;8.698;2022-11-20T07:58:38;18.92;;;8.75;;
4812;SDS011;2420;51.202;8.698;2022-11-20T08:01:05;19.38;;;9.73;;
4812;SDS011;2420;51.202;8.698;2022-11-20T08:03:32;17.57;;;10.13;;
4812;SDS011;2420;51.202;8.698;2022-11-20T08:06:02;18.13;;;9.55;;
4812;SDS011;2420;51.202;8.698;2022-11-20T08:08:28;18.25;;;9.20;;
4812;SDS011;2420;51.202;8.698;2022-11-20T08:10:56;20.23;;;9.27;;
4812;SDS011;2420;51.202;8.698;2022-11-20T08:13:42;20.80;;;9.10;;
4812;SDS011;2420;51.202;8.698;2022-11-20T08:16:26;14.35;;;8.18;;
4812;SDS011;2420;51.202;8.698;2022-11-20T08:18:52;13.50;;;7.13;;
4812;SDS011;2420;51.202;8.698;2022-11-20T08:21:18;16.23;;;8.82;;
4812;SDS011;2420;51.202;8.698;2022-11-20T08:23:44;19.10;;;10.20;;
4812;SDS011;2420;51.202;8.698;2022-11-20T08:26:09;19.95;;;11.65;;
4812;SDS011;2420;51.202;8.698;2022-11-20T08:28:35;23.08;;;12.98;;
4812;SDS011;2420;51.202;8.698;2022-11-20T08:31:00;20.20;;;11.25;;
4812;SDS011;2420;51.202;8.698;2022-11-20T08:33:27;22.52;;;12.68;;
4812;SDS011;2420;51.202;8.698;2022-11-20T08:35:53;15.15;;;8.43;;
4812;SDS011;2420;51.202;8.698;2022-11-20T08:38:23;11.38;;;7.00;;
4812;SDS011;2420;51.202;8.698;2022-11-20T08:40:48;21.52;;;10.82;;
4812;SDS011;2420;51.202;8.698;2022-11-20T08:43:34;20.50;;;9.40;;
4812;SDS011;2420;51.202;8.698;2022-11-20T08:45:59;21.67;;;10.75;;
4812;SDS011;2420;51.202;8.698;2022-11-20T08:48:25;19.65;;;10.32;;
4812;SDS011;2420;51.202;8.698;2022-11-20T08:50:50;14.93;;;9.18;;
4812;SDS011;2420;51.202;8.698;2022-11-20T08:53:16;16.55;;;9.57;;
4812;SDS011;2420;51.202;8.698;2022-11-20T08:55:41;17.35;;;9.55;;
4812;SDS011;2420;51.202;8.698;2022-11-20T08:58:07;18.40;;;9.82;;
4812;SDS011;2420;51.202;8.698;2022-11-20T09:00:33;20.40;;;11.20;;
4812;SDS011;2420;51.202;8.698;2022-11-20T09:02:59;29.95;;;15.10;;
4812;SDS011;2420;51.202;8.698;2022-11-20T09:05:26;27.17;;;13.60;;
4812;SDS011;2420;51.202;8.698;2022-11-20T09:07:58;22.17;;;12.82;;
4812;SDS011;2420;51.202;8.698;2022-11-20T09:10:24;21.83;;;12.88;;
4812;SDS011;2420;51.202;8.698;2022-11-20T09:12:52;24.98;;;13.45;;
4812;SDS011;2420;51.202;8.698;2022-11-20T09:15:17;22.80;;;12.20;;
4812;SDS011;2420;51.202;8.698;2022-11-20T09:17:53;21.52;;;11.60;;
4812;SDS011;2420;51.202;8.698;2022-11-20T09:20:23;29.55;;;14.25;;
4812;SDS011;2420;51.202;8.698;2022-11-20T09:22:50;29.65;;;15.77;;
4812;SDS011;2420;51.202;8.698;2022-11-20T09:25:15;20.23;;;11.60;;
4812;SDS011;2420;51.202;8.698;2022-11-20T09:27:41;21.77;;;12.35;;
4812;SDS011;2420;51.202;8.698;2022-11-20T09:30:08;28.08;;;13.75;;
4812;SDS011;2420;51.202;8.698;2022-11-20T09:32:34;25.25;;;13.13;;
4812;SDS011;2420;51.202;8.698;2022-11-20T09:35:00;20.60;;;11.63;;
4812;SDS011;2420;51.202;8.698;2022-11-20T09:37:26;23.13;;;10.90;;
4812;SDS011;2420;51.202;8.698;2022-11-20T09:39:51;21.15;;;11.57;;
4812;SDS011;2420;51.202;8.698;2022-11-20T09:45:34;16.17;;;8.52;;
4812;SDS011;2420;51.202;8.698;2022-11-20T09:54:15;24.55;;;12.65;;
4812;SDS011;2420;51.202;8.698;2022-11-20T09:56:56;22.80;;;12.32;;
4812;SDS011;2420;51.202;8.698;2022-11-20T09:59:44;23.50;;;12.50;;
4812;SDS011;2420;51.202;8.698;2022-11-20T10:04:53;18.30;;;10.48;;
4812;SDS011;2420;51.202;8.698;2022-11-20T10:07:41;23.90;;;11.30;;
4812;SDS011;2420;51.202;8.698;2022-11-20T10:10:40;22.02;;;11.43;;
4812;SDS011;2420;51.202;8.698;2022-11-20T10:18:37;32.38;;;17.80;;
4812;SDS011;2420;51.202;8.698;2022-11-20T10:21:27;29.73;;;16.75;;
4812;SDS011;2420;51.202;8.698;2022-11-20T10:29:46;17.58;;;9.88;;
4812;SDS011;2420;51.202;8.698;2022-11-20T10:32:20;17.73;;;9.10;;
4812;SDS011;2420;51.202;8.698;2022-11-20T10:34:52;18.15;;;10.38;;
4812;SDS011;2420;51.202;8.698;2022-11-20T10:37:27;18.13;;;8.80;;
4812;SDS011;2420;51.202;8.698;2022-11-20T10:40:00;14.93;;;8.93;;
4812;SDS011;2420;51.202;8.698;2022-11-20T10:42:53;16.58;;;9.32;;
4812;SDS011;2420;51.202;8.698;2022-11-20T10:47:50;18.88;;;9.63;;
4812;SDS011;2420;51.202;8.698;2022-11-20T10:50:19;19.00;;;9.18;;
4812;SDS011;2420;51.202;8.698;2022-11-20T10:55:43;18.23;;;9.77;;
4812;SDS011;2420;51.202;8.698;2022-11-20T10:58:13;24.45;;;11.25;;
4812;SDS011;2420;51.202;8.698;2022-11-20T11:00:39;24.90;;;13.32;;
4812;SDS011;2420;51.202;8.698;2022-11-20T11:03:14;18.38;;;10.48;;
4812;SDS011;2420;51.202;8.698;2022-11-20T11:08:53;19.52;;;10.18;;
4812;SDS011;2420;51.202;8.698;2022-11-20T11:11:24;17.85;;;9.85;;
4812;SDS011;2420;51.202;8.698;2022-11-20T11:13:50;18.27;;;10.30;;
4812;SDS011;2420;51.202;8.698;2022-11-20T11:16:23;19.83;;;10.63;;
4812;SDS011;2420;51.202;8.698;2022-11-20T11:18:50;18.67;;;10.32;;
4812;SDS011;2420;51.202;8.698;2022-11-20T11:21:23;19.83;;;9.15;;
4812;SDS011;2420;51.202;8.698;2022-11-20T11:23:57;15.52;;;8.27;;
4812;SDS011;2420;51.202;8.698;2022-11-20T11:26:25;18.92;;;9.05;;
4812;SDS011;2420;51.202;8.698;2022-11-20T11:29:02;15.85;;;9.30;;
4812;SDS011;2420;51.202;8.698;2022-11-20T11:31:33;16.80;;;8.90;;
4812;SDS011;2420;51.202;8.698;2022-11-20T11:34:06;19.00;;;9.85;;
4812;SDS011;2420;51.202;8.698;2022-11-20T11:36:33;19.58;;;9.18;;
4812;SDS011;2420;51.202;8.698;2022-11-20T11:39:00;11.95;;;7.00;;
4812;SDS011;2420;51.202;8.698;2022-11-20T11:41:30;12.95;;;6.90;;
4812;SDS011;2420;51.202;8.698;2022-11-20T11:44:02;12.07;;;6.55;;
4812;SDS011;2420;51.202;8.698;2022-11-20T11:47:05;9.77;;;5.03;;
4812;SDS011;2420;51.202;8.698;2022-11-20T11:49:36;9.07;;;5.30;;
4812;SDS011;2420;51.202;8.698;2022-11-20T11:52:04;14.13;;;6.97;;
4812;SDS011;2420;51.202;8.698;2022-11-20T11:54:50;9.23;;;5.20;;
4812;SDS011;2420;51.202;8.698;2022-11-20T11:59:57;8.20;;;4.70;;
4812;SDS011;2420;51.202;8.698;2022-11-20T12:05:09;12.25;;;6.88;;
4812;SDS011;2420;51.202;8.698;2022-11-20T12:16:02;12.23;;;6.55;;
4812;SDS011;2420;51.202;8.698;2022-11-20T12:18:29;11.50;;;6.20;;
4812;SDS011;2420;51.202;8.698;2022-11-20T12:26:03;10.85;;;6.00;;
4812;SDS011;2420;51.202;8.698;2022-11-20T12:34:20;12.02;;;5.90;;
4812;SDS011;2420;51.202;8.698;2022-11-20T12:37:09;10.75;;;5.60;;
4812;SDS011;2420;51.202;8.698;2022-11-20T12:39:41;11.32;;;6.53;;
4812;SDS011;2420;51.202;8.698;2022-11-20T12:45:07;14.43;;;6.97;;
4812;SDS011;2420;51.202;8.698;2022-11-20T12:50:31;19.85;;;10.77;;
4812;SDS011;2420;51.202;8.698;2022-11-20T12:59:16;10.52;;;6.30;;
4812;SDS011;2420;51.202;8.698;2022-11-20T13:06:46;11.85;;;7.10;;
4812;SDS011;2420;51.202;8.698;2022-11-20T13:09:13;13.52;;;8.05;;
4812;SDS011;2420;51.202;8.698;2022-11-20T13:14:45;20.83;;;8.77;;
4812;SDS011;2420;51.202;8.698;2022-11-20T13:20:17;16.60;;;8.60;;
4812;SDS011;2420;51.202;8.698;2022-11-20T13:22:44;15.68;;;9.15;;
4812;SDS011;2420;51.202;8.698;2022-11-20T13:27:57;25.70;;;12.70;;
4812;SDS011;2420;51.202;8.698;2022-11-20T13:30:25;18.48;;;10.27;;
4812;SDS011;2420;51.202;8.698;2022-11-20T13:38:11;17.15;;;10.02;;
4812;SDS011;2420;51.202;8.698;2022-11-20T13:40:50;16.65;;;8.77;;
4812;SDS011;2420;51.202;8.698;2022-11-20T13:43:37;13.85;;;7.93;;
4812;SDS011;2420;51.202;8.698;2022-11-20T13:46:06;14.82;;;8.05;;
4812;SDS011;2420;51.202;8.698;2022-11-20T13:48:40;15.07;;;8.10;;
4812;SDS011;2420;51.202;8.698;2022-11-20T13:54:16;14.15;;;7.97;;
4812;SDS011;2420;51.202;8.698;2022-11-20T13:59:45;18.10;;;9.52;;
4812;SDS011;2420;51.202;8.698;2022-11-20T14:02:31;16.50;;;8.93;;
4812;SDS011;2420;51.202;8.698;2022-11-20T14:04:58;21.38;;;11.15;;
4812;SDS011;2420;51.202;8.698;2022-11-20T14:07:25;13.93;;;8.27;;
4812;SDS011;2420;51.202;8.698;2022-11-20T14:09:57;15.25;;;9.32;;
4812;SDS011;2420;51.202;8.698;2022-11-20T14:12:27;13.40;;;8.60;;
4812;SDS011;2420;51.202;8.698;2022-11-20T14:14:54;14.88;;;8.38;;
4812;SDS011;2420;51.202;8.698;2022-11-20T14:19:54;23.85;;;10.80;;
4812;SDS011;2420;51.202;8.698;2022-11-20T14:22:25;24.85;;;12.25;;
4812;SDS011;2420;51.202;8.698;2022-11-20T14:25:02;20.08;;;11.57;;
4812;SDS011;2420;51.202;8.698;2022-11-20T14:27:38;22.05;;;11.13;;
4812;SDS011;2420;51.202;8.698;2022-11-20T14:30:12;22.80;;;11.85;;
4812;SDS011;2420;51.202;8.698;2022-11-20T14:32:41;21.83;;;11.65;;
4812;SDS011;2420;51.202;8.698;2022-11-20T14:35:09;32.13;;;15.80;;
4812;SDS011;2420;51.202;8.698;2022-11-20T14:37:48;29.88;;;14.82;;
4812;SDS011;2420;51.202;8.698;2022-11-20T14:43:01;24.25;;;13.48;;
4812;SDS011;2420;51.202;8.698;2022-11-20T14:45:41;27.95;;;14.60;;
4812;SDS011;2420;51.202;8.698;2022-11-20T14:48:08;25.45;;;12.45;;
4812;SDS011;2420;51.202;8.698;2022-11-20T14:50:37;28.48;;;13.57;;
4812;SDS011;2420;51.202;8.698;2022-11-20T14:53:04;26.77;;;13.98;;
4812;SDS011;2420;51.202;8.698;2022-11-20T14:55:37;30.17;;;14.85;;
4812;SDS011;2420;51.202;8.698;2022-11-20T14:58:04;30.75;;;13.95;;
4812;SDS011;2420;51.202;8.698;2022-11-20T15:00:57;26.52;;;13.88;;
4812;SDS011;2420;51.202;8.698;2022-11-20T15:03:30;28.98;;;15.07;;
4812;SDS011;2420;51.202;8.698;2022-11-20T15:06:00;27.42;;;13.70;;
4812;SDS011;2420;51.202;8.698;2022-11-20T15:08:26;26.75;;;14.32;;
4812;SDS011;2420;51.202;8.698;2022-11-20T15:10:52;28.90;;;14.05;;
4812;SDS011;2420;51.202;8.698;2022-11-20T15:13:31;27.45;;;13.60;;
4812;SDS011;2420;51.202;8.698;2022-11-20T15:16:00;29.00;;;14.18;;
4812;SDS011;2420;51.202;8.698;2022-11-20T15:18:27;26.92;;;13.27;;
4812;SDS011;2420;51.202;8.698;2022-11-20T15:21:02;32.75;;;14.98;;
4812;SDS011;2420;51.202;8.698;2022-11-20T15:23:31;30.55;;;13.98;;
4812;SDS011;2420;51.202;8.698;2022-11-20T15:25:56;30.45;;;15.00;;
4812;SDS011;2420;51.202;8.698;2022-11-20T15:28:24;33.35;;;15.02;;
4812;SDS011;2420;51.202;8.698;2022-11-20T15:30:59;31.48;;;14.10;;
4812;SDS011;2420;51.202;8.698;2022-11-20T15:33:25;28.02;;;14.75;;
4812;SDS011;2420;51.202;8.698;2022-11-20T15:35:50;32.55;;;15.32;;
4812;SDS011;2420;51.202;8.698;2022-11-20T15:38:16;32.03;;;14.88;;
4812;SDS011;2420;51.202;8.698;2022-11-20T15:40:41;32.72;;;16.55;;
4812;SDS011;2420;51.202;8.698;2022-11-20T15:43:07;31.83;;;15.65;;
4812;SDS011;2420;51.202;8.698;2022-11-20T15:48:04;32.75;;;15.70;;
4812;SDS011;2420;51.202;8.698;2022-11-20T15:50:34;31.40;;;16.02;;
4812;SDS011;2420;51.202;8.698;2022-11-20T15:53:02;35.22;;;17.25;;
4812;SDS011;2420;51.202;8.698;2022-11-20T15:55:28;33.15;;;16.15;;
4812;SDS011;2420;51.202;8.698;2022-11-20T15:57:54;31.17;;;15.20;;
4812;SDS011;2420;51.202;8.698;2022-11-20T16:00:20;33.40;;;15.82;;
4812;SDS011;2420;51.202;8.698;2022-11-20T16:02:46;28.92;;;15.10;;
4812;SDS011;2420;51.202;8.698;2022-11-20T16:05:11;31.45;;;16.42;;
4812;SDS011;2420;51.202;8.698;2022-11-20T16:07:38;32.03;;;16.13;;
4812;SDS011;2420;51.202;8.698;2022-11-20T16:10:04;35.20;;;16.55;;
4812;SDS011;2420;51.202;8.698;2022-11-20T16:12:30;33.80;;;16.90;;
4812;SDS011;2420;51.202;8.698;2022-11-20T16:15:14;38.40;;;17.67;;
4812;SDS011;2420;51.202;8.698;2022-11-20T16:17:58;34.42;;;16.60;;
4812;SDS011;2420;51.202;8.698;2022-11-20T16:20:23;31.98;;;16.30;;
4812;SDS011;2420;51.202;8.698;2022-11-20T16:22:49;49.97;;;21.52;;
4812;SDS011;2420;51.202;8.698;2022-11-20T16:25:15;58.13;;;25.65;;
4812;SDS011;2420;51.202;8.698;2022-11-20T16:27:40;54.83;;;23.65;;
4812;SDS011;2420;51.202;8.698;2022-11-20T16:30:06;46.50;;;22.75;;
4812;SDS011;2420;51.202;8.698;2022-11-20T16:32:32;33.75;;;18.15;;
4812;SDS011;2420;51.202;8.698;2022-11-20T16:34:58;32.20;;;16.80;;
4812;SDS011;2420;51.202;8.698;2022-11-20T16:37:23;33.13;;;16.75;;
4812;SDS011;2420;51.202;8.698;2022-11-20T16:39:51;33.17;;;16.05;;
4812;SDS011;2420;51.202;8.698;2022-11-20T16:42:17;35.63;;;17.23;;
4812;SDS011;2420;51.202;8.698;2022-11-20T16:44:44;35.53;;;17.50;;
4812;SDS011;2420;51.202;8.698;2022-11-20T16:47:10;37.25;;;19.52;;
4812;SDS011;2420;51.202;8.698;2022-11-20T16:49:36;41.42;;;20.55;;
4812;SDS011;2420;51.202;8.698;2022-11-20T16:52:01;37.80;;;18.88;;
4812;SDS011;2420;51.202;8.698;2022-11-20T16:54:27;36.03;;;16.90;;
4812;SDS011;2420;51.202;8.698;2022-11-20T16:56:52;35.88;;;18.10;;
4812;SDS011;2420;51.202;8.698;2022-11-20T16:59:18;34.67;;;17.10;;
4812;SDS011;2420;51.202;8.698;2022-11-20T17:01:43;38.25;;;20.88;;
4812;SDS011;2420;51.202;8.698;2022-11-20T17:04:09;44.70;;;22.92;;
4812;SDS011;2420;51.202;8.698;2022-11-20T17:06:36;36.67;;;17.08;;